sensor_id;sensor_type;location;lat;lon;timestamp;P1;durP1;ratioP1;P2;durP2;ratioP2
41799;SDS011;27468;47.460;19.034;2023-06-01T00:01:03;5.45;;;3.40;;
41799;SDS011;27468;47.460;19.034;2023-06-01T00:03:29;5.20;;;3.30;;
41799;SDS011;27468;47.460;19.034;2023-06-01T00:05:55;5.05;;;3.55;;
41799;SDS011;27468;47.460;19.034;2023-06-01T00:08:23;6.05;;;3.53;;
41799;SDS011;27468;47.460;19.034;2023-06-01T00:10:49;4.82;;;3.15;;
41799;SDS011;27468;47.460;19.034;2023-06-01T00:13:14;5.35;;;3.40;;
41799;SDS011;27468;47.460;19.034;2023-06-01T00:15:40;4.97;;;3.30;;
41799;SDS011;27468;47.460;19.034;2023-06-01T00:18:06;5.07;;;3.30;;
41799;SDS011;27468;47.460;19.034;2023-06-01T00:20:33;6.30;;;3.17;;
41799;SDS011;27468;47.460;19.034;2023-06-01T00:22:59;4.82;;;3.28;;
41799;SDS011;27468;47.460;19.034;2023-06-01T00:25:25;5.13;;;3.00;;
41799;SDS011;27468;47.460;19.034;2023-06-01T00:27:51;5.57;;;3.10;;
41799;SDS011;27468;47.460;19.034;2023-06-01T00:30:16;5.30;;;3.42;;
41799;SDS011;27468;47.460;19.034;2023-06-01T00:32:41;6.78;;;3.28;;
41799;SDS011;27468;47.460;19.034;2023-06-01T00:35:07;6.65;;;3.40;;
41799;SDS011;27468;47.460;19.034;2023-06-01T00:37:32;5.97;;;3.63;;
41799;SDS011;27468;47.460;19.034;2023-06-01T00:39:58;4.57;;;3.15;;
41799;SDS011;27468;47.460;19.034;2023-06-01T00:42:23;5.50;;;3.20;;
41799;SDS011;27468;47.460;19.034;2023-06-01T00:44:48;4.57;;;3.55;;
41799;SDS011;27468;47.460;19.034;2023-06-01T00:47:14;5.90;;;3.40;;
41799;SDS011;27468;47.460;19.034;2023-06-01T00:49:40;5.22;;;3.30;;
41799;SDS011;27468;47.460;19.034;2023-06-01T00:52:06;5.32;;;3.30;;
41799;SDS011;27468;47.460;19.034;2023-06-01T00:54:31;5.25;;;3.13;;
41799;SDS011;27468;47.460;19.034;2023-06-01T00:56:58;6.18;;;3.25;;
41799;SDS011;27468;47.460;19.034;2023-06-01T00:59:23;5.63;;;3.38;;
41799;SDS011;27468;47.460;19.034;2023-06-01T01:01:49;4.10;;;2.95;;
41799;SDS011;27468;47.460;19.034;2023-06-01T01:04:14;5.45;;;3.10;;
41799;SDS011;27468;47.460;19.034;2023-06-01T01:12:14;5.38;;;3.20;;
41799;SDS011;27468;47.460;19.034;2023-06-01T01:17:32;6.50;;;3.22;;
41799;SDS011;27468;47.460;19.034;2023-06-01T01:25:59;6.70;;;3.22;;
41799;SDS011;27468;47.460;19.034;2023-06-01T01:29:08;6.47;;;3.90;;
41799;SDS011;27468;47.460;19.034;2023-06-01T01:31:28;4.47;;;3.42;;
41799;SDS011;27468;47.460;19.034;2023-06-01T01:33:56;5.32;;;3.30;;
41799;SDS011;27468;47.460;19.034;2023-06-01T01:36:23;6.93;;;3.55;;
41799;SDS011;27468;47.460;19.034;2023-06-01T01:38:49;4.63;;;3.38;;
41799;SDS011;27468;47.460;19.034;2023-06-01T01:41:15;3.90;;;3.00;;
41799;SDS011;27468;47.460;19.034;2023-06-01T01:43:41;6.43;;;3.78;;
41799;SDS011;27468;47.460;19.034;2023-06-01T01:49:08;4.03;;;2.95;;
41799;SDS011;27468;47.460;19.034;2023-06-01T01:51:44;6.40;;;3.33;;
41799;SDS011;27468;47.460;19.034;2023-06-01T01:54:25;5.53;;;3.28;;
41799;SDS011;27468;47.460;19.034;2023-06-01T01:56:53;4.47;;;3.15;;
41799;SDS011;27468;47.460;19.034;2023-06-01T01:59:21;5.15;;;3.10;;
41799;SDS011;27468;47.460;19.034;2023-06-01T02:01:48;5.57;;;3.10;;
41799;SDS011;27468;47.460;19.034;2023-06-01T02:04:14;5.47;;;3.50;;
41799;SDS011;27468;47.460;19.034;2023-06-01T02:06:39;6.55;;;3.58;;
41799;SDS011;27468;47.460;19.034;2023-06-01T02:09:04;5.13;;;3.03;;
41799;SDS011;27468;47.460;19.034;2023-06-01T02:11:32;4.25;;;3.00;;
41799;SDS011;27468;47.460;19.034;2023-06-01T02:14:01;4.95;;;3.03;;
41799;SDS011;27468;47.460;19.034;2023-06-01T02:16:26;4.47;;;2.95;;
41799;SDS011;27468;47.460;19.034;2023-06-01T02:18:52;4.72;;;3.25;;
41799;SDS011;27468;47.460;19.034;2023-06-01T02:21:18;5.95;;;3.53;;
41799;SDS011;27468;47.460;19.034;2023-06-01T02:23:44;4.40;;;2.90;;
41799;SDS011;27468;47.460;19.034;2023-06-01T02:26:09;6.80;;;3.40;;
41799;SDS011;27468;47.460;19.034;2023-06-01T02:28:38;4.95;;;2.75;;
41799;SDS011;27468;47.460;19.034;2023-06-01T02:31:05;5.00;;;3.05;;
41799;SDS011;27468;47.460;19.034;2023-06-01T02:33:31;6.43;;;3.08;;
41799;SDS011;27468;47.460;19.034;2023-06-01T02:35:57;4.55;;;3.65;;
41799;SDS011;27468;47.460;19.034;2023-06-01T02:38:24;5.65;;;3.40;;
41799;SDS011;27468;47.460;19.034;2023-06-01T02:40:49;4.90;;;3.38;;
41799;SDS011;27468;47.460;19.034;2023-06-01T02:43:15;7.32;;;3.08;;
41799;SDS011;27468;47.460;19.034;2023-06-01T02:45:40;5.90;;;3.70;;
41799;SDS011;27468;47.460;19.034;2023-06-01T02:48:05;5.18;;;2.70;;
41799;SDS011;27468;47.460;19.034;2023-06-01T02:50:31;4.10;;;2.72;;
41799;SDS011;27468;47.460;19.034;2023-06-01T02:52:56;5.20;;;3.38;;
41799;SDS011;27468;47.460;19.034;2023-06-01T02:55:22;4.15;;;2.75;;
41799;SDS011;27468;47.460;19.034;2023-06-01T02:57:47;4.93;;;3.50;;
41799;SDS011;27468;47.460;19.034;2023-06-01T03:00:13;4.50;;;2.97;;
41799;SDS011;27468;47.460;19.034;2023-06-01T03:02:42;4.22;;;2.53;;
41799;SDS011;27468;47.460;19.034;2023-06-01T03:05:10;4.35;;;2.83;;
41799;SDS011;27468;47.460;19.034;2023-06-01T03:07:40;4.57;;;2.92;;
41799;SDS011;27468;47.460;19.034;2023-06-01T03:10:06;5.18;;;2.90;;
41799;SDS011;27468;47.460;19.034;2023-06-01T03:12:33;4.28;;;2.90;;
41799;SDS011;27468;47.460;19.034;2023-06-01T03:14:58;6.35;;;3.20;;
41799;SDS011;27468;47.460;19.034;2023-06-01T03:17:24;6.07;;;2.97;;
41799;SDS011;27468;47.460;19.034;2023-06-01T03:19:49;4.78;;;3.30;;
41799;SDS011;27468;47.460;19.034;2023-06-01T03:22:15;4.57;;;2.50;;
41799;SDS011;27468;47.460;19.034;2023-06-01T03:24:40;5.03;;;2.80;;
41799;SDS011;27468;47.460;19.034;2023-06-01T03:27:06;4.80;;;2.80;;
41799;SDS011;27468;47.460;19.034;2023-06-01T03:29:32;6.22;;;2.92;;
41799;SDS011;27468;47.460;19.034;2023-06-01T03:31:57;3.92;;;2.80;;
41799;SDS011;27468;47.460;19.034;2023-06-01T03:34:24;4.10;;;2.72;;
41799;SDS011;27468;47.460;19.034;2023-06-01T03:36:51;5.05;;;3.00;;
41799;SDS011;27468;47.460;19.034;2023-06-01T03:39:17;4.35;;;2.78;;
41799;SDS011;27468;47.460;19.034;2023-06-01T03:41:42;4.93;;;3.15;;
41799;SDS011;27468;47.460;19.034;2023-06-01T03:44:09;4.85;;;2.75;;
41799;SDS011;27468;47.460;19.034;2023-06-01T03:46:35;4.05;;;2.80;;
41799;SDS011;27468;47.460;19.034;2023-06-01T03:49:00;6.38;;;2.58;;
41799;SDS011;27468;47.460;19.034;2023-06-01T03:51:26;5.00;;;2.65;;
41799;SDS011;27468;47.460;19.034;2023-06-01T03:53:51;10.27;;;2.50;;
41799;SDS011;27468;47.460;19.034;2023-06-01T03:56:17;3.78;;;2.55;;
41799;SDS011;27468;47.460;19.034;2023-06-01T03:58:44;5.32;;;2.70;;
41799;SDS011;27468;47.460;19.034;2023-06-01T04:01:10;3.75;;;2.38;;
41799;SDS011;27468;47.460;19.034;2023-06-01T04:03:37;3.83;;;2.22;;
41799;SDS011;27468;47.460;19.034;2023-06-01T04:06:02;4.03;;;2.38;;
41799;SDS011;27468;47.460;19.034;2023-06-01T04:08:29;3.58;;;1.98;;
41799;SDS011;27468;47.460;19.034;2023-06-01T04:10:55;4.10;;;2.28;;
41799;SDS011;27468;47.460;19.034;2023-06-01T04:13:21;3.90;;;2.28;;
41799;SDS011;27468;47.460;19.034;2023-06-01T04:15:46;2.80;;;2.17;;
41799;SDS011;27468;47.460;19.034;2023-06-01T04:18:11;3.33;;;2.25;;
41799;SDS011;27468;47.460;19.034;2023-06-01T04:20:37;4.47;;;2.17;;
41799;SDS011;27468;47.460;19.034;2023-06-01T04:23:02;5.13;;;2.30;;
41799;SDS011;27468;47.460;19.034;2023-06-01T04:25:28;4.97;;;2.28;;
41799;SDS011;27468;47.460;19.034;2023-06-01T04:27:53;3.40;;;2.13;;
41799;SDS011;27468;47.460;19.034;2023-06-01T04:30:19;3.80;;;2.20;;
41799;SDS011;27468;47.460;19.034;2023-06-01T04:32:46;2.90;;;2.08;;
41799;SDS011;27468;47.460;19.034;2023-06-01T04:35:13;4.18;;;2.42;;
41799;SDS011;27468;47.460;19.034;2023-06-01T04:37:39;4.15;;;2.20;;
41799;SDS011;27468;47.460;19.034;2023-06-01T04:40:06;5.53;;;3.05;;
41799;SDS011;27468;47.460;19.034;2023-06-01T04:42:34;9.32;;;2.92;;
41799;SDS011;27468;47.460;19.034;2023-06-01T04:45:01;2.53;;;2.15;;
41799;SDS011;27468;47.460;19.034;2023-06-01T04:47:31;4.35;;;2.53;;
41799;SDS011;27468;47.460;19.034;2023-06-01T04:49:57;3.95;;;2.70;;
41799;SDS011;27468;47.460;19.034;2023-06-01T04:52:23;3.92;;;2.42;;
41799;SDS011;27468;47.460;19.034;2023-06-01T04:54:49;3.15;;;2.42;;
41799;SDS011;27468;47.460;19.034;2023-06-01T04:57:15;3.60;;;2.20;;
41799;SDS011;27468;47.460;19.034;2023-06-01T04:59:41;4.82;;;2.38;;
41799;SDS011;27468;47.460;19.034;2023-06-01T05:02:07;3.53;;;1.70;;
41799;SDS011;27468;47.460;19.034;2023-06-01T05:04:32;2.67;;;1.92;;
41799;SDS011;27468;47.460;19.034;2023-06-01T05:06:58;4.47;;;1.90;;
41799;SDS011;27468;47.460;19.034;2023-06-01T05:09:23;3.50;;;2.10;;
41799;SDS011;27468;47.460;19.034;2023-06-01T05:11:50;3.45;;;2.08;;
41799;SDS011;27468;47.460;19.034;2023-06-01T05:14:15;3.67;;;2.17;;
41799;SDS011;27468;47.460;19.034;2023-06-01T05:16:41;4.60;;;2.33;;
41799;SDS011;27468;47.460;19.034;2023-06-01T05:19:06;3.20;;;2.10;;
41799;SDS011;27468;47.460;19.034;2023-06-01T05:21:31;3.75;;;2.45;;
41799;SDS011;27468;47.460;19.034;2023-06-01T05:23:57;3.35;;;2.08;;
41799;SDS011;27468;47.460;19.034;2023-06-01T05:26:22;3.55;;;2.28;;
41799;SDS011;27468;47.460;19.034;2023-06-01T05:28:48;2.83;;;2.00;;
41799;SDS011;27468;47.460;19.034;2023-06-01T05:31:13;3.97;;;2.13;;
41799;SDS011;27468;47.460;19.034;2023-06-01T05:33:39;3.80;;;2.20;;
41799;SDS011;27468;47.460;19.034;2023-06-01T05:36:05;4.93;;;2.30;;
41799;SDS011;27468;47.460;19.034;2023-06-01T05:38:31;3.42;;;2.17;;
41799;SDS011;27468;47.460;19.034;2023-06-01T05:40:56;3.30;;;2.30;;
41799;SDS011;27468;47.460;19.034;2023-06-01T05:43:21;2.50;;;2.10;;
41799;SDS011;27468;47.460;19.034;2023-06-01T05:45:47;3.17;;;2.13;;
41799;SDS011;27468;47.460;19.034;2023-06-01T05:48:13;2.65;;;2.00;;
41799;SDS011;27468;47.460;19.034;2023-06-01T05:50:40;4.38;;;2.15;;
41799;SDS011;27468;47.460;19.034;2023-06-01T05:53:06;3.72;;;2.00;;
41799;SDS011;27468;47.460;19.034;2023-06-01T05:55:32;3.13;;;2.13;;
41799;SDS011;27468;47.460;19.034;2023-06-01T05:57:57;3.50;;;2.33;;
41799;SDS011;27468;47.460;19.034;2023-06-01T06:00:23;4.70;;;2.03;;
41799;SDS011;27468;47.460;19.034;2023-06-01T06:02:48;4.80;;;2.45;;
41799;SDS011;27468;47.460;19.034;2023-06-01T06:05:14;5.38;;;2.05;;
41799;SDS011;27468;47.460;19.034;2023-06-01T06:07:39;4.03;;;2.35;;
41799;SDS011;27468;47.460;19.034;2023-06-01T06:10:05;4.45;;;2.10;;
41799;SDS011;27468;47.460;19.034;2023-06-01T06:12:31;3.60;;;2.13;;
41799;SDS011;27468;47.460;19.034;2023-06-01T06:14:56;4.75;;;3.90;;
41799;SDS011;27468;47.460;19.034;2023-06-01T06:17:22;4.03;;;2.33;;
41799;SDS011;27468;47.460;19.034;2023-06-01T06:19:47;2.95;;;2.03;;
41799;SDS011;27468;47.460;19.034;2023-06-01T06:22:14;2.78;;;1.90;;
41799;SDS011;27468;47.460;19.034;2023-06-01T06:24:40;4.30;;;2.05;;
41799;SDS011;27468;47.460;19.034;2023-06-01T06:27:07;2.92;;;2.00;;
41799;SDS011;27468;47.460;19.034;2023-06-01T06:29:33;3.95;;;2.20;;
41799;SDS011;27468;47.460;19.034;2023-06-01T06:31:58;3.80;;;2.05;;
41799;SDS011;27468;47.460;19.034;2023-06-01T06:34:24;4.85;;;2.08;;
41799;SDS011;27468;47.460;19.034;2023-06-01T06:36:49;5.20;;;1.95;;
41799;SDS011;27468;47.460;19.034;2023-06-01T06:39:17;3.58;;;2.10;;
41799;SDS011;27468;47.460;19.034;2023-06-01T06:41:43;3.35;;;1.95;;
41799;SDS011;27468;47.460;19.034;2023-06-01T06:44:08;3.17;;;2.05;;
41799;SDS011;27468;47.460;19.034;2023-06-01T06:46:34;4.32;;;1.80;;
41799;SDS011;27468;47.460;19.034;2023-06-01T06:48:59;3.95;;;1.83;;
41799;SDS011;27468;47.460;19.034;2023-06-01T06:51:25;3.05;;;1.92;;
41799;SDS011;27468;47.460;19.034;2023-06-01T06:53:51;2.72;;;1.90;;
41799;SDS011;27468;47.460;19.034;2023-06-01T06:56:16;6.70;;;2.45;;
41799;SDS011;27468;47.460;19.034;2023-06-01T06:58:42;3.00;;;1.80;;
41799;SDS011;27468;47.460;19.034;2023-06-01T07:01:08;3.95;;;2.05;;
41799;SDS011;27468;47.460;19.034;2023-06-01T07:03:34;4.15;;;2.25;;
41799;SDS011;27468;47.460;19.034;2023-06-01T07:06:00;3.53;;;1.60;;
41799;SDS011;27468;47.460;19.034;2023-06-01T07:08:26;2.60;;;2.33;;
41799;SDS011;27468;47.460;19.034;2023-06-01T07:10:52;2.13;;;1.60;;
41799;SDS011;27468;47.460;19.034;2023-06-01T07:13:19;4.32;;;1.80;;
41799;SDS011;27468;47.460;19.034;2023-06-01T07:15:44;3.17;;;1.73;;
41799;SDS011;27468;47.460;19.034;2023-06-01T07:18:10;3.40;;;1.92;;
41799;SDS011;27468;47.460;19.034;2023-06-01T07:20:35;4.20;;;2.22;;
41799;SDS011;27468;47.460;19.034;2023-06-01T07:23:00;2.63;;;1.50;;
41799;SDS011;27468;47.460;19.034;2023-06-01T07:25:26;2.95;;;1.60;;
41799;SDS011;27468;47.460;19.034;2023-06-01T07:27:51;2.80;;;1.60;;
41799;SDS011;27468;47.460;19.034;2023-06-01T07:30:17;2.70;;;1.55;;
41799;SDS011;27468;47.460;19.034;2023-06-01T07:32:42;3.53;;;1.52;;
41799;SDS011;27468;47.460;19.034;2023-06-01T07:35:08;2.97;;;1.60;;
41799;SDS011;27468;47.460;19.034;2023-06-01T07:37:34;2.25;;;1.55;;
41799;SDS011;27468;47.460;19.034;2023-06-01T07:40:00;2.30;;;1.40;;
41799;SDS011;27468;47.460;19.034;2023-06-01T07:42:25;4.50;;;1.73;;
41799;SDS011;27468;47.460;19.034;2023-06-01T07:44:51;3.35;;;1.52;;
41799;SDS011;27468;47.460;19.034;2023-06-01T07:47:16;4.00;;;1.88;;
41799;SDS011;27468;47.460;19.034;2023-06-01T07:49:42;3.45;;;1.60;;
41799;SDS011;27468;47.460;19.034;2023-06-01T07:52:07;2.72;;;1.60;;
41799;SDS011;27468;47.460;19.034;2023-06-01T07:54:34;4.28;;;1.92;;
41799;SDS011;27468;47.460;19.034;2023-06-01T07:57:03;5.03;;;2.80;;
41799;SDS011;27468;47.460;19.034;2023-06-01T07:59:29;2.75;;;1.65;;
41799;SDS011;27468;47.460;19.034;2023-06-01T08:01:56;2.53;;;1.52;;
41799;SDS011;27468;47.460;19.034;2023-06-01T08:04:22;2.78;;;1.73;;
41799;SDS011;27468;47.460;19.034;2023-06-01T08:06:49;2.42;;;1.50;;
41799;SDS011;27468;47.460;19.034;2023-06-01T08:09:18;3.53;;;1.80;;
41799;SDS011;27468;47.460;19.034;2023-06-01T08:11:45;3.35;;;1.80;;
41799;SDS011;27468;47.460;19.034;2023-06-01T08:14:11;3.75;;;1.70;;
41799;SDS011;27468;47.460;19.034;2023-06-01T08:16:36;2.05;;;1.60;;
41799;SDS011;27468;47.460;19.034;2023-06-01T08:19:02;2.17;;;1.60;;
41799;SDS011;27468;47.460;19.034;2023-06-01T08:21:28;3.08;;;1.60;;
41799;SDS011;27468;47.460;19.034;2023-06-01T08:23:53;3.65;;;1.77;;
41799;SDS011;27468;47.460;19.034;2023-06-01T08:26:22;3.10;;;1.83;;
41799;SDS011;27468;47.460;19.034;2023-06-01T08:28:48;3.03;;;1.70;;
41799;SDS011;27468;47.460;19.034;2023-06-01T08:31:20;3.80;;;1.90;;
41799;SDS011;27468;47.460;19.034;2023-06-01T08:33:47;2.92;;;1.60;;
41799;SDS011;27468;47.460;19.034;2023-06-01T08:36:13;2.10;;;1.50;;
41799;SDS011;27468;47.460;19.034;2023-06-01T08:38:39;1.88;;;1.55;;
41799;SDS011;27468;47.460;19.034;2023-06-01T08:41:08;3.40;;;1.67;;
41799;SDS011;27468;47.460;19.034;2023-06-01T08:43:43;2.88;;;1.80;;
41799;SDS011;27468;47.460;19.034;2023-06-01T08:46:12;2.55;;;1.80;;
41799;SDS011;27468;47.460;19.034;2023-06-01T08:48:40;2.47;;;1.60;;
41799;SDS011;27468;47.460;19.034;2023-06-01T08:51:08;1.80;;;1.40;;
41799;SDS011;27468;47.460;19.034;2023-06-01T08:53:33;3.90;;;2.78;;
41799;SDS011;27468;47.460;19.034;2023-06-01T08:55:59;3.83;;;1.70;;
41799;SDS011;27468;47.460;19.034;2023-06-01T08:58:25;2.85;;;1.55;;
41799;SDS011;27468;47.460;19.034;2023-06-01T09:00:51;2.83;;;1.90;;
41799;SDS011;27468;47.460;19.034;2023-06-01T09:03:18;4.70;;;1.83;;
41799;SDS011;27468;47.460;19.034;2023-06-01T09:05:45;2.97;;;1.55;;
41799;SDS011;27468;47.460;19.034;2023-06-01T09:08:10;2.20;;;1.40;;
41799;SDS011;27468;47.460;19.034;2023-06-01T09:10:37;1.92;;;1.45;;
41799;SDS011;27468;47.460;19.034;2023-06-01T09:13:02;4.20;;;1.60;;
41799;SDS011;27468;47.460;19.034;2023-06-01T09:15:28;2.75;;;1.65;;
41799;SDS011;27468;47.460;19.034;2023-06-01T09:18:03;3.25;;;1.77;;
41799;SDS011;27468;47.460;19.034;2023-06-01T09:20:31;1.75;;;1.60;;
41799;SDS011;27468;47.460;19.034;2023-06-01T09:22:57;4.40;;;1.85;;
41799;SDS011;27468;47.460;19.034;2023-06-01T09:25:24;3.42;;;1.40;;
41799;SDS011;27468;47.460;19.034;2023-06-01T09:27:52;4.75;;;2.25;;
41799;SDS011;27468;47.460;19.034;2023-06-01T09:30:19;3.95;;;1.80;;
41799;SDS011;27468;47.460;19.034;2023-06-01T09:32:46;3.67;;;1.58;;
41799;SDS011;27468;47.460;19.034;2023-06-01T09:38:22;2.72;;;1.75;;
41799;SDS011;27468;47.460;19.034;2023-06-01T09:41:01;3.00;;;1.52;;
41799;SDS011;27468;47.460;19.034;2023-06-01T09:43:27;2.58;;;1.65;;
41799;SDS011;27468;47.460;19.034;2023-06-01T09:46:06;2.95;;;1.65;;
41799;SDS011;27468;47.460;19.034;2023-06-01T09:48:38;3.40;;;1.90;;
41799;SDS011;27468;47.460;19.034;2023-06-01T09:51:04;4.07;;;1.92;;
41799;SDS011;27468;47.460;19.034;2023-06-01T09:53:48;3.50;;;2.15;;
41799;SDS011;27468;47.460;19.034;2023-06-01T09:56:13;3.63;;;2.38;;
41799;SDS011;27468;47.460;19.034;2023-06-01T09:58:39;2.30;;;1.80;;
41799;SDS011;27468;47.460;19.034;2023-06-01T10:01:06;2.53;;;1.70;;
41799;SDS011;27468;47.460;19.034;2023-06-01T10:03:33;2.83;;;1.88;;
41799;SDS011;27468;47.460;19.034;2023-06-01T10:06:02;3.75;;;2.03;;
41799;SDS011;27468;47.460;19.034;2023-06-01T10:08:28;3.50;;;1.88;;
41799;SDS011;27468;47.460;19.034;2023-06-01T10:10:55;3.40;;;2.05;;
41799;SDS011;27468;47.460;19.034;2023-06-01T10:13:21;4.13;;;2.08;;
41799;SDS011;27468;47.460;19.034;2023-06-01T10:15:49;3.70;;;1.85;;
41799;SDS011;27468;47.460;19.034;2023-06-01T10:18:19;3.97;;;2.00;;
41799;SDS011;27468;47.460;19.034;2023-06-01T10:20:46;3.60;;;2.05;;
41799;SDS011;27468;47.460;19.034;2023-06-01T10:23:11;3.80;;;1.95;;
41799;SDS011;27468;47.460;19.034;2023-06-01T10:25:41;2.45;;;1.70;;
41799;SDS011;27468;47.460;19.034;2023-06-01T10:28:13;2.63;;;1.90;;
41799;SDS011;27468;47.460;19.034;2023-06-01T10:30:39;3.10;;;2.00;;
41799;SDS011;27468;47.460;19.034;2023-06-01T10:33:05;2.97;;;2.25;;
41799;SDS011;27468;47.460;19.034;2023-06-01T10:40:37;2.95;;;1.92;;
41799;SDS011;27468;47.460;19.034;2023-06-01T10:43:06;2.55;;;1.75;;
41799;SDS011;27468;47.460;19.034;2023-06-01T10:47:59;3.38;;;2.20;;
41799;SDS011;27468;47.460;19.034;2023-06-01T10:50:25;2.83;;;1.85;;
41799;SDS011;27468;47.460;19.034;2023-06-01T10:52:51;3.13;;;2.10;;
41799;SDS011;27468;47.460;19.034;2023-06-01T10:55:19;4.22;;;2.25;;
41799;SDS011;27468;47.460;19.034;2023-06-01T10:57:48;3.20;;;2.13;;
41799;SDS011;27468;47.460;19.034;2023-06-01T11:00:16;4.47;;;1.95;;
41799;SDS011;27468;47.460;19.034;2023-06-01T11:21:04;2.38;;;2.00;;
41799;SDS011;27468;47.460;19.034;2023-06-01T11:23:32;2.80;;;1.98;;
41799;SDS011;27468;47.460;19.034;2023-06-01T11:25:59;4.30;;;2.45;;
41799;SDS011;27468;47.460;19.034;2023-06-01T11:28:30;2.88;;;2.08;;
41799;SDS011;27468;47.460;19.034;2023-06-01T11:30:56;3.20;;;2.08;;
41799;SDS011;27468;47.460;19.034;2023-06-01T11:33:23;4.15;;;2.47;;
41799;SDS011;27468;47.460;19.034;2023-06-01T11:36:02;3.88;;;2.28;;
41799;SDS011;27468;47.460;19.034;2023-06-01T11:38:38;3.22;;;2.20;;
41799;SDS011;27468;47.460;19.034;2023-06-01T11:41:06;4.32;;;2.58;;
41799;SDS011;27468;47.460;19.034;2023-06-01T11:43:33;3.05;;;2.47;;
41799;SDS011;27468;47.460;19.034;2023-06-01T11:46:03;4.95;;;2.58;;
41799;SDS011;27468;47.460;19.034;2023-06-01T11:48:37;3.75;;;2.28;;
41799;SDS011;27468;47.460;19.034;2023-06-01T11:51:03;2.80;;;2.38;;
41799;SDS011;27468;47.460;19.034;2023-06-01T11:53:29;3.15;;;2.30;;
41799;SDS011;27468;47.460;19.034;2023-06-01T11:55:58;2.55;;;2.00;;
41799;SDS011;27468;47.460;19.034;2023-06-01T11:58:27;3.22;;;2.03;;
41799;SDS011;27468;47.460;19.034;2023-06-01T12:00:54;4.90;;;2.72;;
41799;SDS011;27468;47.460;19.034;2023-06-01T12:03:21;3.25;;;2.13;;
41799;SDS011;27468;47.460;19.034;2023-06-01T12:05:49;3.58;;;2.20;;
41799;SDS011;27468;47.460;19.034;2023-06-01T12:08:16;3.45;;;2.20;;
41799;SDS011;27468;47.460;19.034;2023-06-01T12:10:47;3.80;;;2.20;;
41799;SDS011;27468;47.460;19.034;2023-06-01T12:13:14;3.60;;;2.35;;
41799;SDS011;27468;47.460;19.034;2023-06-01T12:15:40;3.53;;;2.40;;
41799;SDS011;27468;47.460;19.034;2023-06-01T12:18:06;2.92;;;1.85;;
41799;SDS011;27468;47.460;19.034;2023-06-01T12:20:36;3.60;;;2.40;;
41799;SDS011;27468;47.460;19.034;2023-06-01T12:25:39;5.85;;;2.65;;
41799;SDS011;27468;47.460;19.034;2023-06-01T12:28:16;3.65;;;2.17;;
41799;SDS011;27468;47.460;19.034;2023-06-01T12:30:45;3.97;;;2.20;;
41799;SDS011;27468;47.460;19.034;2023-06-01T12:35:55;3.22;;;2.10;;
41799;SDS011;27468;47.460;19.034;2023-06-01T12:38:20;5.65;;;2.47;;
41799;SDS011;27468;47.460;19.034;2023-06-01T12:40:47;3.35;;;2.05;;
41799;SDS011;27468;47.460;19.034;2023-06-01T12:43:32;4.95;;;2.20;;
41799;SDS011;27468;47.460;19.034;2023-06-01T12:45:59;4.15;;;2.45;;
41799;SDS011;27468;47.460;19.034;2023-06-01T12:48:29;4.28;;;2.80;;
41799;SDS011;27468;47.460;19.034;2023-06-01T12:50:59;2.90;;;2.40;;
41799;SDS011;27468;47.460;19.034;2023-06-01T12:53:25;4.28;;;2.20;;
41799;SDS011;27468;47.460;19.034;2023-06-01T12:55:51;3.08;;;1.95;;
41799;SDS011;27468;47.460;19.034;2023-06-01T12:58:17;3.88;;;2.60;;
41799;SDS011;27468;47.460;19.034;2023-06-01T13:00:42;4.68;;;2.95;;
41799;SDS011;27468;47.460;19.034;2023-06-01T13:03:07;3.47;;;2.45;;
41799;SDS011;27468;47.460;19.034;2023-06-01T13:05:33;2.85;;;1.88;;
41799;SDS011;27468;47.460;19.034;2023-06-01T13:07:58;3.25;;;2.03;;
41799;SDS011;27468;47.460;19.034;2023-06-01T13:10:25;3.15;;;2.17;;
41799;SDS011;27468;47.460;19.034;2023-06-01T13:12:51;4.05;;;2.20;;
41799;SDS011;27468;47.460;19.034;2023-06-01T13:15:17;4.00;;;2.25;;
41799;SDS011;27468;47.460;19.034;2023-06-01T13:17:43;3.53;;;2.35;;
41799;SDS011;27468;47.460;19.034;2023-06-01T13:20:09;2.65;;;1.90;;
41799;SDS011;27468;47.460;19.034;2023-06-01T13:22:36;3.50;;;2.20;;
41799;SDS011;27468;47.460;19.034;2023-06-01T13:25:02;4.65;;;2.58;;
41799;SDS011;27468;47.460;19.034;2023-06-01T13:27:29;3.17;;;2.42;;
41799;SDS011;27468;47.460;19.034;2023-06-01T13:29:55;2.75;;;1.80;;
41799;SDS011;27468;47.460;19.034;2023-06-01T13:32:20;2.58;;;2.25;;
41799;SDS011;27468;47.460;19.034;2023-06-01T13:34:46;4.00;;;2.47;;
41799;SDS011;27468;47.460;19.034;2023-06-01T13:37:11;4.93;;;2.35;;
41799;SDS011;27468;47.460;19.034;2023-06-01T13:39:37;3.28;;;1.92;;
41799;SDS011;27468;47.460;19.034;2023-06-01T13:42:03;3.45;;;2.35;;
41799;SDS011;27468;47.460;19.034;2023-06-01T13:44:30;3.47;;;2.55;;
41799;SDS011;27468;47.460;19.034;2023-06-01T13:46:56;4.45;;;2.30;;
41799;SDS011;27468;47.460;19.034;2023-06-01T13:49:21;3.50;;;2.25;;
41799;SDS011;27468;47.460;19.034;2023-06-01T13:51:47;3.67;;;1.92;;
41799;SDS011;27468;47.460;19.034;2023-06-01T13:54:14;3.55;;;2.35;;
41799;SDS011;27468;47.460;19.034;2023-06-01T13:56:40;2.45;;;2.17;;
41799;SDS011;27468;47.460;19.034;2023-06-01T13:59:05;2.97;;;2.10;;
41799;SDS011;27468;47.460;19.034;2023-06-01T14:01:31;4.68;;;2.63;;
41799;SDS011;27468;47.460;19.034;2023-06-01T14:03:56;3.70;;;2.22;;
41799;SDS011;27468;47.460;19.034;2023-06-01T14:06:22;2.75;;;2.05;;
41799;SDS011;27468;47.460;19.034;2023-06-01T14:08:47;3.45;;;2.10;;
41799;SDS011;27468;47.460;19.034;2023-06-01T14:11:13;2.92;;;2.35;;
41799;SDS011;27468;47.460;19.034;2023-06-01T14:13:39;3.58;;;2.38;;
41799;SDS011;27468;47.460;19.034;2023-06-01T14:16:04;4.05;;;2.10;;
41799;SDS011;27468;47.460;19.034;2023-06-01T14:18:30;3.13;;;1.80;;
41799;SDS011;27468;47.460;19.034;2023-06-01T14:20:55;4.32;;;2.50;;
41799;SDS011;27468;47.460;19.034;2023-06-01T14:23:22;3.13;;;2.17;;
41799;SDS011;27468;47.460;19.034;2023-06-01T14:25:47;3.47;;;2.40;;
41799;SDS011;27468;47.460;19.034;2023-06-01T14:28:13;3.70;;;2.33;;
41799;SDS011;27468;47.460;19.034;2023-06-01T14:30:38;3.45;;;2.20;;
41799;SDS011;27468;47.460;19.034;2023-06-01T14:33:04;3.15;;;2.17;;
41799;SDS011;27468;47.460;19.034;2023-06-01T14:35:30;3.20;;;2.58;;
41799;SDS011;27468;47.460;19.034;2023-06-01T14:37:55;3.28;;;2.42;;
41799;SDS011;27468;47.460;19.034;2023-06-01T14:40:21;4.07;;;2.72;;
41799;SDS011;27468;47.460;19.034;2023-06-01T14:42:46;3.28;;;2.30;;
41799;SDS011;27468;47.460;19.034;2023-06-01T14:45:12;4.07;;;2.35;;
41799;SDS011;27468;47.460;19.034;2023-06-01T14:47:38;5.32;;;2.70;;
41799;SDS011;27468;47.460;19.034;2023-06-01T14:50:06;3.63;;;2.33;;
41799;SDS011;27468;47.460;19.034;2023-06-01T14:52:32;2.80;;;2.10;;
41799;SDS011;27468;47.460;19.034;2023-06-01T14:54:58;5.20;;;2.38;;
41799;SDS011;27468;47.460;19.034;2023-06-01T14:57:23;3.10;;;2.00;;
41799;SDS011;27468;47.460;19.034;2023-06-01T14:59:49;3.60;;;2.83;;
41799;SDS011;27468;47.460;19.034;2023-06-01T15:02:14;5.30;;;2.70;;
41799;SDS011;27468;47.460;19.034;2023-06-01T15:04:40;4.47;;;2.28;;
41799;SDS011;27468;47.460;19.034;2023-06-01T15:07:05;2.72;;;2.10;;
41799;SDS011;27468;47.460;19.034;2023-06-01T15:09:31;4.60;;;2.83;;
41799;SDS011;27468;47.460;19.034;2023-06-01T15:11:57;4.68;;;3.25;;
41799;SDS011;27468;47.460;19.034;2023-06-01T15:14:22;4.10;;;2.03;;
41799;SDS011;27468;47.460;19.034;2023-06-01T15:16:48;3.38;;;2.58;;
41799;SDS011;27468;47.460;19.034;2023-06-01T15:19:13;3.33;;;2.58;;
41799;SDS011;27468;47.460;19.034;2023-06-01T15:21:39;2.80;;;2.10;;